Time;durP1;ratioP1;P1;durP2;ratioP2;P2;SDS_P1;SDS_P2;PMS_P1;PMS_P2;Temp;Humidity;BMP_temperature;BMP_pressure;BME280_temperature;BME280_humidity;BME280_pressure;Samples;Min_cycle;Max_cycle;Signal;HPM_P1;HPM_P2
2023/04/19 00:01:27;;;;;;;22.10;4.10;;;;;;;10.05;100.00;100256.90;105294;1259;68549;-54
2023/04/19 00:03:56;;;;;;;24.50;3.20;;;;;;;10.07;100.00;100253.34;105387;1262;73546;-56
2023/04/19 00:06:25;;;;;;;28.60;3.90;;;;;;;10.07;100.00;100243.56;105468;1260;63811;-55
2023/04/19 00:08:53;;;;;;;24.20;3.60;;;;;;;10.07;100.00;100250.90;105425;1258;62083;-55
2023/04/19 00:11:23;;;;;;;32.90;4.00;;;;;;;10.06;100.00;100247.83;105404;1262;76016;-55
2023/04/19 00:13:51;;;;;;;27.00;4.30;;;;;;;10.03;100.00;100251.38;105504;1262;67663;-55
2023/04/19 00:16:20;;;;;;;30.70;4.00;;;;;;;9.95;100.00;100252.55;105466;1262;72931;-55
2023/04/19 00:18:49;;;;;;;31.60;4.40;;;;;;;9.87;100.00;100256.10;105303;1273;62707;-55
2023/04/19 00:21:17;;;;;;;22.20;3.80;;;;;;;9.81;100.00;100252.64;105404;1258;61962;-54
2023/04/19 00:23:45;;;;;;;26.40;4.10;;;;;;;9.81;100.00;100253.05;105610;1258;76147;-56
2023/04/19 00:26:16;;;;;;;25.90;3.80;;;;;;;9.81;100.00;100263.48;105107;1262;68024;-55
2023/04/19 00:28:47;;;;;;;31.20;5.60;;;;;;;9.84;100.00;100266.77;105404;1262;73230;-58
2023/04/19 00:31:16;;;;;;;26.40;3.90;;;;;;;9.87;100.00;100261.01;105260;1260;63515;-55
2023/04/19 00:33:44;;;;;;;32.30;4.30;;;;;;;9.90;100.00;100258.81;105017;1257;444265;-56
2023/04/19 00:36:13;;;;;;;31.70;5.00;;;;;;;9.91;100.00;100256.13;105408;1261;75615;-57
2023/04/19 00:38:41;;;;;;;27.60;4.70;;;;;;;9.91;100.00;100255.17;105642;1262;68586;-57
2023/04/19 00:41:10;;;;;;;35.30;4.90;;;;;;;9.86;100.00;100250.55;105217;1260;74508;-54
2023/04/19 00:43:39;;;;;;;30.80;5.50;;;;;;;9.80;100.00;100252.06;105509;1258;61305;-58
2023/04/19 00:46:08;;;;;;;23.10;4.20;;;;;;;9.77;100.00;100254.33;105082;1264;61222;-54
2023/04/19 00:48:36;;;;;;;28.80;4.40;;;;;;;9.76;100.00;100254.95;105289;1259;75433;-55
2023/04/19 00:51:05;;;;;;;26.30;4.80;;;;;;;9.78;100.00;100256.38;105366;1262;69129;-54
2023/04/19 00:53:34;;;;;;;37.40;4.00;;;;;;;9.80;100.00;100262.54;105231;1262;73221;-54
2023/04/19 00:56:04;;;;;;;24.10;4.00;;;;;;;9.81;100.00;100256.64;105299;1260;61287;-57
2023/04/19 00:58:32;;;;;;;29.80;4.70;;;;;;;9.82;100.00;100253.98;105573;1259;61632;-58
2023/04/19 01:01:01;;;;;;;32.70;4.40;;;;;;;9.82;100.00;100256.73;105425;1259;76611;-55
2023/04/19 01:03:30;;;;;;;25.70;4.20;;;;;;;9.82;100.00;100255.82;105340;1262;67867;-55
2023/04/19 01:05:59;;;;;;;29.10;4.30;;;;;;;9.82;100.00;100249.84;105484;1262;74085;-56
2023/04/19 01:08:27;;;;;;;32.80;5.40;;;;;;;9.81;100.00;100248.21;105153;1262;62279;-57
2023/04/19 01:10:56;;;;;;;26.60;4.50;;;;;;;9.80;100.00;100245.80;105217;1259;61238;-54
2023/04/19 01:13:26;;;;;;;28.50;4.50;;;;;;;9.79;100.00;100246.79;105389;1261;75180;-54
2023/04/19 01:15:55;;;;;;;31.40;4.30;;;;;;;9.78;100.00;100243.83;105352;1262;67604;-57
2023/04/19 01:18:24;;;;;;;34.50;4.90;;;;;;;9.78;100.00;100241.55;105391;1262;74542;-55
2023/04/19 01:20:53;;;;;;;28.00;3.80;;;;;;;9.78;100.00;100237.60;105405;1263;61921;-56
2023/04/19 01:23:22;;;;;;;29.20;5.60;;;;;;;9.76;100.00;100240.39;105393;1260;61244;-54
2023/04/19 01:25:51;;;;;;;36.40;6.10;;;;;;;9.70;100.00;100238.17;105510;1262;76022;-54
2023/04/19 01:28:19;;;;;;;30.70;6.00;;;;;;;9.60;100.00;100242.08;105353;1259;68636;-55
2023/04/19 01:30:50;;;;;;;32.50;4.60;;;;;;;9.48;100.00;100236.15;105335;1257;74207;-54
2023/04/19 01:33:19;;;;;;;33.10;4.70;;;;;;;9.37;100.00;100233.92;105406;1263;61942;-54
2023/04/19 01:35:48;;;;;;;32.50;4.80;;;;;;;9.28;100.00;100232.91;105295;1262;61183;-55
2023/04/19 01:38:16;;;;;;;34.30;5.10;;;;;;;9.21;100.00;100236.44;105136;1262;76442;-55
2023/04/19 01:40:45;;;;;;;27.50;5.40;;;;;;;9.17;100.00;100233.42;105401;1265;68039;-55
2023/04/19 01:43:16;;;;;;;29.90;4.60;;;;;;;9.18;100.00;100228.74;105443;1259;74310;-55
2023/04/19 01:45:45;;;;;;;35.90;6.60;;;;;;;9.17;100.00;100230.89;105682;1262;61246;-57
2023/04/19 01:48:13;;;;;;;30.50;5.90;;;;;;;9.15;100.00;100229.50;105449;1262;61238;-57
2023/04/19 01:50:42;;;;;;;19.00;3.40;;;;;;;9.12;100.00;100226.89;105355;1257;76259;-55
2023/04/19 01:53:11;;;;;;;23.90;3.80;;;;;;;9.09;100.00;100229.02;105425;1263;68518;-56
2023/04/19 01:55:39;;;;;;;24.70;4.50;;;;;;;9.03;100.00;100233.36;105259;1259;74310;-57
2023/04/19 01:58:08;;;;;;;35.10;5.90;;;;;;;8.98;100.00;100233.91;105332;1260;62932;-58
2023/04/19 02:00:37;;;;;;;27.80;3.90;;;;;;;8.89;100.00;100235.04;105302;1257;61234;-56
2023/04/19 02:03:06;;;;;;;30.00;5.10;;;;;;;8.80;100.00;100233.46;105072;1262;75994;-55
2023/04/19 02:05:35;;;;;;;30.00;4.90;;;;;;;8.72;100.00;100229.16;105425;1259;67561;-56
2023/04/19 02:08:03;;;;;;;30.60;3.90;;;;;;;8.66;100.00;100223.82;105627;1262;72926;-56
2023/04/19 02:10:32;;;;;;;28.30;4.40;;;;;;;8.60;100.00;100225.30;105062;1260;62766;-56
2023/04/19 02:13:00;;;;;;;31.10;4.50;;;;;;;8.57;100.00;100223.30;105197;1260;61891;-55
2023/04/19 02:15:29;;;;;;;26.60;3.70;;;;;;;8.57;100.00;100225.73;105365;1259;76167;-55
2023/04/19 02:17:59;;;;;;;33.40;5.10;;;;;;;8.60;100.00;100220.50;105504;1262;67612;-59
2023/04/19 02:20:28;;;;;;;31.80;4.80;;;;;;;8.67;100.00;100212.48;105401;1262;73338;-55
2023/04/19 02:22:56;;;;;;;29.90;4.80;;;;;;;8.73;100.00;100209.84;105356;1260;63592;-56
2023/04/19 02:25:25;;;;;;;33.80;4.30;;;;;;;8.78;100.00;100213.05;105414;1259;61970;-54
2023/04/19 02:27:53;;;;;;;33.60;4.30;;;;;;;8.85;100.00;100215.05;105604;1262;75212;-56
2023/04/19 02:30:22;;;;;;;21.80;4.20;;;;;;;8.90;100.00;100218.30;105305;1263;68931;-54
2023/04/19 02:32:51;;;;;;;23.50;4.00;;;;;;;8.94;100.00;100215.09;105416;1262;74311;-54
2023/04/19 02:35:20;;;;;;;28.10;3.90;;;;;;;8.97;100.00;100210.90;105454;1260;63579;-54
2023/04/19 02:37:48;;;;;;;23.50;3.60;;;;;;;9.01;100.00;100206.70;105254;1257;61823;-56
2023/04/19 02:40:19;;;;;;;24.90;3.30;;;;;;;9.06;100.00;100201.88;105402;1258;76766;-57
2023/04/19 02:42:48;;;;;;;26.60;4.60;;;;;;;9.09;100.00;100205.98;105469;1260;67555;-54
2023/04/19 02:45:17;;;;;;;29.60;4.50;;;;;;;9.14;100.00;100202.82;105299;1262;72934;-58
2023/04/19 02:47:46;;;;;;;26.90;4.60;;;;;;;9.17;100.00;100195.85;105089;1262;61351;-55
2023/04/19 02:50:15;;;;;;;21.90;3.80;;;;;;;9.17;100.00;100193.41;105419;1263;60142;-55
2023/04/19 02:52:47;;;;;;;25.00;4.00;;;;;;;9.15;100.00;100189.48;105077;1262;76188;-55
2023/04/19 02:55:16;;;;;;;23.70;4.10;;;;;;;9.14;100.00;100186.19;105449;1259;67742;-57
2023/04/19 02:57:45;;;;;;;30.50;5.00;;;;;;;9.14;100.00;100183.26;105402;1262;74020;-57
2023/04/19 03:00:14;;;;;;;16.30;3.50;;;;;;;9.14;100.00;100179.23;105262;1263;62135;-56
2023/04/19 03:02:50;;;;;;;21.80;3.50;;;;;;;9.16;100.00;100174.52;105531;1258;61760;-57
2023/04/19 03:05:19;;;;;;;20.40;4.30;;;;;;;9.16;100.00;100169.97;105385;1262;74756;-56
2023/04/19 03:07:47;;;;;;;19.00;3.30;;;;;;;9.16;100.00;100172.89;105468;1262;67698;-60
2023/04/19 03:10:17;;;;;;;29.00;4.60;;;;;;;9.13;100.00;100164.92;105222;1262;73778;-54
2023/04/19 03:12:45;;;;;;;23.40;3.60;;;;;;;9.08;100.00;100163.23;105417;1263;61945;-59
2023/04/19 03:15:14;;;;;;;21.40;3.40;;;;;;;9.01;100.00;100163.89;105513;1259;61447;-56
2023/04/19 03:17:43;;;;;;;22.80;2.70;;;;;;;8.94;100.00;100161.54;105439;1262;76344;-56
2023/04/19 03:20:12;;;;;;;15.80;3.40;;;;;;;8.89;100.00;100159.92;105021;1262;67189;-58
2023/04/19 03:22:41;;;;;;;15.40;2.80;;;;;;;8.83;100.00;100161.75;105525;1262;74397;-56
2023/04/19 03:25:12;;;;;;;22.80;4.40;;;;;;;8.79;100.00;100162.05;105402;1262;62008;-56
2023/04/19 03:27:44;;;;;;;13.00;2.60;;;;;;;8.75;100.00;100157.96;105451;1263;61318;-60
2023/04/19 03:30:13;;;;;;;22.60;4.50;;;;;;;8.73;100.00;100166.85;105245;1262;75665;-56
2023/04/19 03:32:45;;;;;;;23.00;3.30;;;;;;;8.70;100.00;100171.74;105417;1262;68564;-57
2023/04/19 03:35:13;;;;;;;25.80;3.50;;;;;;;8.67;100.00;100169.98;105396;1262;74180;-56
2023/04/19 03:37:42;;;;;;;19.00;3.30;;;;;;;8.65;100.00;100164.83;105374;1260;63579;-59
2023/04/19 03:40:11;;;;;;;19.90;3.00;;;;;;;8.62;100.00;100171.31;105256;1263;62054;-55
2023/04/19 03:42:40;;;;;;;22.90;3.80;;;;;;;8.53;100.00;100171.86;105410;1262;74901;-58
2023/04/19 03:45:17;;;;;;;18.30;3.30;;;;;;;8.43;100.00;100178.09;105342;1262;69289;-55
2023/04/19 03:47:47;;;;;;;15.90;2.90;;;;;;;8.33;100.00;100179.53;105368;1258;73964;-60
2023/04/19 03:50:16;;;;;;;21.80;3.10;;;;;;;8.23;100.00;100189.70;105376;1263;63480;-55
2023/04/19 03:52:46;;;;;;;22.00;3.30;;;;;;;8.17;100.00;100190.21;105129;1262;61388;-54
2023/04/19 03:55:15;;;;;;;17.70;3.20;;;;;;;8.14;100.00;100183.13;105395;1262;76187;-56
2023/04/19 03:57:43;;;;;;;26.80;4.30;;;;;;;8.11;100.00;100184.41;105505;1257;67663;-61
2023/04/19 04:00:18;;;;;;;17.60;3.50;;;;;;;8.05;100.00;100188.55;105407;1259;74195;-60
2023/04/19 04:02:49;;;;;;;21.30;3.40;;;;;;;8.03;100.00;100198.29;105467;1264;62585;-57
2023/04/19 04:05:18;;;;;;;24.10;3.10;;;;;;;8.01;100.00;100195.41;105368;1260;61826;-56
2023/04/19 04:07:48;;;;;;;19.50;3.00;;;;;;;8.00;100.00;100198.34;105536;1263;75652;-56
2023/04/19 04:10:16;;;;;;;15.20;3.60;;;;;;;8.00;100.00;100198.47;105427;1263;66647;-56
2023/04/19 04:12:45;;;;;;;21.90;2.90;;;;;;;8.03;100.00;100201.76;105057;1263;74131;-57
2023/04/19 04:15:18;;;;;;;18.50;3.80;;;;;;;8.06;100.00;100208.95;105287;1263;63520;-56
2023/04/19 04:17:50;;;;;;;17.40;2.90;;;;;;;8.12;100.00;100205.54;105652;1261;61069;-57
2023/04/19 04:20:19;;;;;;;14.80;2.60;;;;;;;8.22;100.00;100199.60;105066;1263;74561;-55
2023/04/19 04:22:47;;;;;;;17.30;4.60;;;;;;;8.30;100.00;100207.98;105278;1263;67643;-57
2023/04/19 04:25:17;;;;;;;15.30;2.50;;;;;;;8.41;100.00;100202.70;105259;1269;74235;-56
